sensor_id;sensor_type;location;lat;lon;timestamp;P1;P2;P0
78316;PMS7003;67572;50.930;18.276;2023-04-21T00:01:10;31.00;25.50;19.00
78316;PMS7003;67572;50.930;18.276;2023-04-21T00:04:14;32.00;27.00;21.50
78316;PMS7003;67572;50.930;18.276;2023-04-21T00:07:18;32.25;28.50;22.25
78316;PMS7003;67572;50.930;18.276;2023-04-21T00:10:23;30.75;30.75;22.50
78316;PMS7003;67572;50.930;18.276;2023-04-21T00:13:28;8.00;4.75;1.00
78316;PMS7003;67572;50.930;18.276;2023-04-21T00:16:31;28.75;25.75;19.00
78316;PMS7003;67572;50.930;18.276;2023-04-21T00:19:35;35.00;28.75;23.50
78316;PMS7003;67572;50.930;18.276;2023-04-21T00:22:38;27.50;25.00;20.00
78316;PMS7003;67572;50.930;18.276;2023-04-21T00:25:42;32.00;30.25;22.50
78316;PMS7003;67572;50.930;18.276;2023-04-21T00:28:47;29.25;26.50;19.50
78316;PMS7003;67572;50.930;18.276;2023-04-21T00:31:51;28.50;26.00;20.75
78316;PMS7003;67572;50.930;18.276;2023-04-21T00:34:54;35.00;30.50;23.00
78316;PMS7003;67572;50.930;18.276;2023-04-21T00:37:58;34.00;30.50;21.25
78316;PMS7003;67572;50.930;18.276;2023-04-21T00:41:02;37.25;29.25;17.75
78316;PMS7003;67572;50.930;18.276;2023-04-21T00:44:07;36.25;34.25;21.75
78316;PMS7003;67572;50.930;18.276;2023-04-21T00:47:11;33.75;29.00;21.00
78316;PMS7003;67572;50.930;18.276;2023-04-21T00:50:16;30.00;28.00;20.50
78316;PMS7003;67572;50.930;18.276;2023-04-21T00:53:19;31.75;24.75;20.00
78316;PMS7003;67572;50.930;18.276;2023-04-21T00:56:24;26.00;24.50;19.00
78316;PMS7003;67572;50.930;18.276;2023-04-21T00:59:31;33.25;31.75;23.00
78316;PMS7003;67572;50.930;18.276;2023-04-21T01:02:35;27.25;24.25;19.25
78316;PMS7003;67572;50.930;18.276;2023-04-21T01:05:40;25.25;18.00;14.25
78316;PMS7003;67572;50.930;18.276;2023-04-21T01:08:45;29.50;24.25;19.00
78316;PMS7003;67572;50.930;18.276;2023-04-21T01:11:59;33.25;30.50;21.00
78316;PMS7003;67572;50.930;18.276;2023-04-21T01:15:06;41.75;37.50;27.25
78316;PMS7003;67572;50.930;18.276;2023-04-21T01:18:11;20.75;16.50;15.25
78316;PMS7003;67572;50.930;18.276;2023-04-21T01:21:15;35.25;26.75;21.50
78316;PMS7003;67572;50.930;18.276;2023-04-21T01:24:21;30.75;27.50;20.75
78316;PMS7003;67572;50.930;18.276;2023-04-21T01:27:25;32.50;28.50;18.50
78316;PMS7003;67572;50.930;18.276;2023-04-21T01:30:28;33.50;31.75;24.00
78316;PMS7003;67572;50.930;18.276;2023-04-21T01:33:32;37.00;31.00;23.00
78316;PMS7003;67572;50.930;18.276;2023-04-21T01:36:36;34.50;30.50;24.25
78316;PMS7003;67572;50.930;18.276;2023-04-21T01:39:41;34.25;31.75;22.75
78316;PMS7003;67572;50.930;18.276;2023-04-21T01:42:46;29.50;28.00;21.50
78316;PMS7003;67572;50.930;18.276;2023-04-21T01:45:50;36.50;31.50;21.25
78316;PMS7003;67572;50.930;18.276;2023-04-21T01:48:54;31.00;26.00;19.00
78316;PMS7003;67572;50.930;18.276;2023-04-21T01:51:58;32.75;28.00;19.50
78316;PMS7003;67572;50.930;18.276;2023-04-21T01:55:03;31.00;27.00;19.00
78316;PMS7003;67572;50.930;18.276;2023-04-21T01:58:07;18.00;16.00;9.00
78316;PMS7003;67572;50.930;18.276;2023-04-21T02:01:11;29.75;27.75;21.00
78316;PMS7003;67572;50.930;18.276;2023-04-21T02:04:14;37.50;36.25;24.50
78316;PMS7003;67572;50.930;18.276;2023-04-21T02:07:18;28.75;26.50;23.00
78316;PMS7003;67572;50.930;18.276;2023-04-21T02:10:23;30.50;28.00;21.75
78316;PMS7003;67572;50.930;18.276;2023-04-21T02:13:26;32.25;29.50;21.00
78316;PMS7003;67572;50.930;18.276;2023-04-21T02:16:30;31.50;28.50;24.00
78316;PMS7003;67572;50.930;18.276;2023-04-21T02:19:34;34.00;30.50;24.50
78316;PMS7003;67572;50.930;18.276;2023-04-21T02:22:38;36.50;33.00;25.00
78316;PMS7003;67572;50.930;18.276;2023-04-21T02:25:43;29.00;26.75;19.50
78316;PMS7003;67572;50.930;18.276;2023-04-21T02:28:47;36.75;33.75;25.25
78316;PMS7003;67572;50.930;18.276;2023-04-21T02:31:51;31.25;27.75;21.75
78316;PMS7003;67572;50.930;18.276;2023-04-21T02:35:06;18.25;18.25;15.00
78316;PMS7003;67572;50.930;18.276;2023-04-21T02:38:10;39.50;35.25;25.75
78316;PMS7003;67572;50.930;18.276;2023-04-21T02:41:16;31.50;29.25;20.50
78316;PMS7003;67572;50.930;18.276;2023-04-21T02:44:20;36.25;27.50;21.75
78316;PMS7003;67572;50.930;18.276;2023-04-21T02:47:23;32.75;32.25;25.00
78316;PMS7003;67572;50.930;18.276;2023-04-21T02:50:27;33.50;28.75;20.50
78316;PMS7003;67572;50.930;18.276;2023-04-21T02:53:31;30.50;26.25;22.00
78316;PMS7003;67572;50.930;18.276;2023-04-21T02:56:36;27.50;26.25;19.25
78316;PMS7003;67572;50.930;18.276;2023-04-21T02:59:40;21.00;20.00;13.50
78316;PMS7003;67572;50.930;18.276;2023-04-21T03:02:44;38.00;30.50;20.50
78316;PMS7003;67572;50.930;18.276;2023-04-21T03:05:54;28.75;24.50;18.50
78316;PMS7003;67572;50.930;18.276;2023-04-21T03:08:59;33.25;29.50;22.00
78316;PMS7003;67572;50.930;18.276;2023-04-21T03:12:04;21.50;21.25;18.75
78316;PMS7003;67572;50.930;18.276;2023-04-21T03:15:09;27.50;26.00;20.75
78316;PMS7003;67572;50.930;18.276;2023-04-21T03:18:13;30.50;27.75;21.75
78316;PMS7003;67572;50.930;18.276;2023-04-21T03:21:17;25.50;24.50;19.50
78316;PMS7003;67572;50.930;18.276;2023-04-21T03:24:21;26.50;25.25;20.00
78316;PMS7003;67572;50.930;18.276;2023-04-21T03:27:26;25.50;23.25;21.00
78316;PMS7003;67572;50.930;18.276;2023-04-21T03:30:30;18.25;16.25;12.25
78316;PMS7003;67572;50.930;18.276;2023-04-21T03:33:34;32.25;27.25;21.25
78316;PMS7003;67572;50.930;18.276;2023-04-21T03:36:37;25.50;25.25;18.00
78316;PMS7003;67572;50.930;18.276;2023-04-21T03:39:41;25.50;21.50;14.50
78316;PMS7003;67572;50.930;18.276;2023-04-21T03:42:46;35.00;30.50;21.50
78316;PMS7003;67572;50.930;18.276;2023-04-21T03:45:49;26.00;25.00;20.50
78316;PMS7003;67572;50.930;18.276;2023-04-21T03:48:53;35.50;29.50;23.50
78316;PMS7003;67572;50.930;18.276;2023-04-21T03:51:56;30.25;25.00;21.25
78316;PMS7003;67572;50.930;18.276;2023-04-21T03:55:00;31.50;31.50;22.00
78316;PMS7003;67572;50.930;18.276;2023-04-21T03:58:05;30.00;27.25;19.50
78316;PMS7003;67572;50.930;18.276;2023-04-21T04:01:08;28.50;26.00;21.50
78316;PMS7003;67572;50.930;18.276;2023-04-21T04:04:12;32.25;30.00;24.00
78316;PMS7003;67572;50.930;18.276;2023-04-21T04:07:16;29.75;29.75;24.50
78316;PMS7003;67572;50.930;18.276;2023-04-21T04:10:19;33.50;28.00;21.50
78316;PMS7003;67572;50.930;18.276;2023-04-21T04:13:24;39.50;36.50;26.00
78316;PMS7003;67572;50.930;18.276;2023-04-21T04:16:29;32.75;29.25;24.25
78316;PMS7003;67572;50.930;18.276;2023-04-21T04:19:33;39.50;38.00;28.00
78316;PMS7003;67572;50.930;18.276;2023-04-21T04:22:36;39.00;34.50;24.50
78316;PMS7003;67572;50.930;18.276;2023-04-21T04:25:40;41.50;31.50;25.00
78316;PMS7003;67572;50.930;18.276;2023-04-21T04:28:45;19.50;12.50;6.00
78316;PMS7003;67572;50.930;18.276;2023-04-21T04:31:49;30.50;29.75;24.50
78316;PMS7003;67572;50.930;18.276;2023-04-21T04:34:53;37.25;35.25;26.00
78316;PMS7003;67572;50.930;18.276;2023-04-21T04:37:57;36.25;32.25;23.50
78316;PMS7003;67572;50.930;18.276;2023-04-21T04:41:00;33.75;30.00;22.50
78316;PMS7003;67572;50.930;18.276;2023-04-21T04:44:05;40.50;33.75;26.50
78316;PMS7003;67572;50.930;18.276;2023-04-21T04:47:09;34.75;34.75;25.25
78316;PMS7003;67572;50.930;18.276;2023-04-21T04:50:13;32.50;31.25;24.25
78316;PMS7003;67572;50.930;18.276;2023-04-21T04:53:16;33.00;28.00;22.00
78316;PMS7003;67572;50.930;18.276;2023-04-21T04:56:20;29.75;26.25;18.25
78316;PMS7003;67572;50.930;18.276;2023-04-21T04:59:25;35.75;33.25;24.75
78316;PMS7003;67572;50.930;18.276;2023-04-21T05:02:31;32.75;29.75;22.75
78316;PMS7003;67572;50.930;18.276;2023-04-21T05:05:35;30.50;27.25;20.50
78316;PMS7003;67572;50.930;18.276;2023-04-21T05:08:38;24.50;20.75;14.75
78316;PMS7003;67572;50.930;18.276;2023-04-21T05:11:42;38.00;29.75;20.50
78316;PMS7003;67572;50.930;18.276;2023-04-21T05:14:47;35.00;28.75;21.75
78316;PMS7003;67572;50.930;18.276;2023-04-21T05:17:50;24.50;19.75;14.25
78316;PMS7003;67572;50.930;18.276;2023-04-21T05:20:54;31.00;25.00;17.50
78316;PMS7003;67572;50.930;18.276;2023-04-21T05:23:58;33.00;32.75;22.25
78316;PMS7003;67572;50.930;18.276;2023-04-21T05:27:02;21.00;18.50;13.50
78316;PMS7003;67572;50.930;18.276;2023-04-21T05:30:08;28.00;19.25;18.75
78316;PMS7003;67572;50.930;18.276;2023-04-21T05:33:12;30.50;27.50;21.00
78316;PMS7003;67572;50.930;18.276;2023-04-21T05:36:15;36.50;31.75;22.50
78316;PMS7003;67572;50.930;18.276;2023-04-21T05:39:20;32.50;30.00;21.75
78316;PMS7003;67572;50.930;18.276;2023-04-21T05:42:24;30.25;28.25;21.25
78316;PMS7003;67572;50.930;18.276;2023-04-21T05:45:29;33.50;29.75;23.00
78316;PMS7003;67572;50.930;18.276;2023-04-21T05:48:33;32.75;32.75;25.00
78316;PMS7003;67572;50.930;18.276;2023-04-21T05:51:36;35.00;30.00;22.75
78316;PMS7003;67572;50.930;18.276;2023-04-21T05:54:40;32.75;32.75;24.75
78316;PMS7003;67572;50.930;18.276;2023-04-21T05:57:44;36.75;26.25;18.00
78316;PMS7003;67572;50.930;18.276;2023-04-21T06:00:49;37.25;35.25;27.00
78316;PMS7003;67572;50.930;18.276;2023-04-21T06:03:52;37.50;34.00;27.00
78316;PMS7003;67572;50.930;18.276;2023-04-21T06:06:56;35.25;31.00;24.75
78316;PMS7003;67572;50.930;18.276;2023-04-21T06:10:00;35.50;34.50;27.50
78316;PMS7003;67572;50.930;18.276;2023-04-21T06:13:03;35.25;32.25;22.00
78316;PMS7003;67572;50.930;18.276;2023-04-21T06:16:08;39.75;37.75;27.25
78316;PMS7003;67572;50.930;18.276;2023-04-21T06:19:12;34.25;34.00;28.25
78316;PMS7003;67572;50.930;18.276;2023-04-21T06:22:16;29.00;25.50;20.00
78316;PMS7003;67572;50.930;18.276;2023-04-21T06:25:19;28.50;28.50;24.00
78316;PMS7003;67572;50.930;18.276;2023-04-21T06:28:23;33.75;33.75;26.50
78316;PMS7003;67572;50.930;18.276;2023-04-21T06:31:28;39.50;36.75;29.00
78316;PMS7003;67572;50.930;18.276;2023-04-21T06:34:32;32.50;25.50;22.00
78316;PMS7003;67572;50.930;18.276;2023-04-21T06:37:35;34.75;32.00;24.50
78316;PMS7003;67572;50.930;18.276;2023-04-21T06:40:39;37.00;33.00;28.50
78316;PMS7003;67572;50.930;18.276;2023-04-21T06:43:42;44.00;37.25;24.50
78316;PMS7003;67572;50.930;18.276;2023-04-21T06:46:47;34.25;30.25;24.75
78316;PMS7003;67572;50.930;18.276;2023-04-21T06:49:50;38.25;35.50;24.75
78316;PMS7003;67572;50.930;18.276;2023-04-21T06:52:54;28.50;27.25;21.75
78316;PMS7003;67572;50.930;18.276;2023-04-21T06:55:57;31.50;31.50;25.00
78316;PMS7003;67572;50.930;18.276;2023-04-21T06:59:01;36.75;34.25;22.25
78316;PMS7003;67572;50.930;18.276;2023-04-21T07:02:06;28.00;28.00;23.50
78316;PMS7003;67572;50.930;18.276;2023-04-21T07:05:09;14.50;14.50;12.50
78316;PMS7003;67572;50.930;18.276;2023-04-21T07:08:13;31.50;31.00;27.00
78316;PMS7003;67572;50.930;18.276;2023-04-21T07:11:16;24.50;21.25;16.50
78316;PMS7003;67572;50.930;18.276;2023-04-21T07:14:20;35.00;30.25;25.00
78316;PMS7003;67572;50.930;18.276;2023-04-21T07:17:25;33.25;30.00;21.25
78316;PMS7003;67572;50.930;18.276;2023-04-21T07:20:28;33.00;27.75;21.75
78316;PMS7003;67572;50.930;18.276;2023-04-21T07:23:32;22.25;20.25;15.25
78316;PMS7003;67572;50.930;18.276;2023-04-21T07:26:35;31.00;30.50;24.25
78316;PMS7003;67572;50.930;18.276;2023-04-21T07:29:39;30.75;28.00;23.25
78316;PMS7003;67572;50.930;18.276;2023-04-21T07:32:43;37.00;32.75;25.00
78316;PMS7003;67572;50.930;18.276;2023-04-21T07:35:48;34.75;31.50;26.75
78316;PMS7003;67572;50.930;18.276;2023-04-21T07:38:51;38.00;33.75;25.00
78316;PMS7003;67572;50.930;18.276;2023-04-21T07:41:55;40.75;39.75;29.25
78316;PMS7003;67572;50.930;18.276;2023-04-21T07:44:58;38.00;38.00;27.33
78316;PMS7003;67572;50.930;18.276;2023-04-21T07:48:04;35.00;29.67;23.67
78316;PMS7003;67572;50.930;18.276;2023-04-21T07:51:08;35.00;33.25;26.00
78316;PMS7003;67572;50.930;18.276;2023-04-21T07:54:12;34.33;33.33;19.67
78316;PMS7003;67572;50.930;18.276;2023-04-21T07:57:15;32.67;32.67;28.00
78316;PMS7003;67572;50.930;18.276;2023-04-21T08:00:19;39.67;35.67;23.00
78316;PMS7003;67572;50.930;18.276;2023-04-21T08:03:24;31.33;27.00;23.33
78316;PMS7003;67572;50.930;18.276;2023-04-21T08:06:28;30.67;30.67;23.33
78316;PMS7003;67572;50.930;18.276;2023-04-21T08:09:34;37.33;37.33;27.67
78316;PMS7003;67572;50.930;18.276;2023-04-21T08:12:38;24.33;22.67;20.67
78316;PMS7003;67572;50.930;18.276;2023-04-21T08:15:41;33.00;30.67;25.00
78316;PMS7003;67572;50.930;18.276;2023-04-21T08:18:47;29.67;28.00;20.67
78316;PMS7003;67572;50.930;18.276;2023-04-21T08:21:51;23.67;23.67;21.67
78316;PMS7003;67572;50.930;18.276;2023-04-21T08:24:54;34.67;26.67;18.00
78316;PMS7003;67572;50.930;18.276;2023-04-21T08:27:59;27.67;23.67;20.33
78316;PMS7003;67572;50.930;18.276;2023-04-21T08:31:02;31.67;31.67;25.00
78316;PMS7003;67572;50.930;18.276;2023-04-21T08:34:07;28.33;26.33;22.00
78316;PMS7003;67572;50.930;18.276;2023-04-21T08:37:11;29.00;28.67;21.67
78316;PMS7003;67572;50.930;18.276;2023-04-21T08:40:14;30.33;27.00;22.67
78316;PMS7003;67572;50.930;18.276;2023-04-21T08:43:18;29.33;25.33;18.67
78316;PMS7003;67572;50.930;18.276;2023-04-21T08:46:22;21.33;19.00;18.00
78316;PMS7003;67572;50.930;18.276;2023-04-21T08:49:28;18.33;16.00;11.00
78316;PMS7003;67572;50.930;18.276;2023-04-21T08:52:33;25.33;22.67;18.33
78316;PMS7003;67572;50.930;18.276;2023-04-21T08:55:36;23.33;22.33;17.00
78316;PMS7003;67572;50.930;18.276;2023-04-21T08:58:40;26.67;25.00;19.33
78316;PMS7003;67572;50.930;18.276;2023-04-21T09:05:14;19.00;19.00;13.00
78316;PMS7003;67572;50.930;18.276;2023-04-21T09:08:24;22.00;20.33;16.00
78316;PMS7003;67572;50.930;18.276;2023-04-21T09:11:31;23.67;20.33;17.00
78316;PMS7003;67572;50.930;18.276;2023-04-21T09:14:35;20.33;17.00;15.67
78316;PMS7003;67572;50.930;18.276;2023-04-21T09:17:38;25.00;23.00;17.67
78316;PMS7003;67572;50.930;18.276;2023-04-21T09:20:44;23.67;20.67;14.00
78316;PMS7003;67572;50.930;18.276;2023-04-21T09:23:50;17.00;17.00;13.67
78316;PMS7003;67572;50.930;18.276;2023-04-21T09:26:56;27.00;25.33;19.33
78316;PMS7003;67572;50.930;18.276;2023-04-21T09:30:01;22.00;22.00;18.00
78316;PMS7003;67572;50.930;18.276;2023-04-21T09:33:06;16.33;16.33;13.00
78316;PMS7003;67572;50.930;18.276;2023-04-21T09:36:27;25.33;23.33;19.33
78316;PMS7003;67572;50.930;18.276;2023-04-21T09:39:32;24.33;22.33;18.00
78316;PMS7003;67572;50.930;18.276;2023-04-21T09:42:50;13.67;12.67;10.00
78316;PMS7003;67572;50.930;18.276;2023-04-21T09:45:53;18.00;17.67;15.67
78316;PMS7003;67572;50.930;18.276;2023-04-21T09:48:59;14.00;13.00;11.33
78316;PMS7003;67572;50.930;18.276;2023-04-21T09:52:04;14.33;14.33;13.67
78316;PMS7003;67572;50.930;18.276;2023-04-21T09:55:21;18.33;15.67;13.00
78316;PMS7003;67572;50.930;18.276;2023-04-21T09:58:27;18.00;16.67;14.00
78316;PMS7003;67572;50.930;18.276;2023-04-21T10:01:35;19.33;19.33;14.33
78316;PMS7003;67572;50.930;18.276;2023-04-21T10:04:41;18.67;15.67;13.33
78316;PMS7003;67572;50.930;18.276;2023-04-21T10:07:48;15.67;13.33;11.00
78316;PMS7003;67572;50.930;18.276;2023-04-21T10:10:52;14.67;14.67;13.00
78316;PMS7003;67572;50.930;18.276;2023-04-21T10:13:55;14.67;13.67;10.00
78316;PMS7003;67572;50.930;18.276;2023-04-21T10:17:02;8.33;6.00;1.00
78316;PMS7003;67572;50.930;18.276;2023-04-21T10:20:07;20.67;17.00;13.67
78316;PMS7003;67572;50.930;18.276;2023-04-21T10:23:14;15.33;14.33;11.33
78316;PMS7003;67572;50.930;18.276;2023-04-21T10:26:31;15.33;15.33;13.33
78316;PMS7003;67572;50.930;18.276;2023-04-21T10:29:36;14.00;14.00;11.00
78316;PMS7003;67572;50.930;18.276;2023-04-21T10:33:00;13.67;13.33;11.00
78316;PMS7003;67572;50.930;18.276;2023-04-21T10:36:05;14.00;14.00;11.33
78316;PMS7003;67572;50.930;18.276;2023-04-21T10:39:10;21.33;16.67;13.33
78316;PMS7003;67572;50.930;18.276;2023-04-21T10:42:27;20.00;17.67;14.00
78316;PMS7003;67572;50.930;18.276;2023-04-21T10:45:36;19.33;17.33;14.67
78316;PMS7003;67572;50.930;18.276;2023-04-21T10:48:40;11.67;11.67;11.00
78316;PMS7003;67572;50.930;18.276;2023-04-21T10:52:06;24.00;23.33;17.00
78316;PMS7003;67572;50.930;18.276;2023-04-21T10:55:14;16.33;16.00;14.00
78316;PMS7003;67572;50.930;18.276;2023-04-21T10:58:17;12.33;11.33;9.33
78316;PMS7003;67572;50.930;18.276;2023-04-21T11:01:25;13.33;13.33;12.67
78316;PMS7003;67572;50.930;18.276;2023-04-21T11:04:29;16.33;16.33;14.00
78316;PMS7003;67572;50.930;18.276;2023-04-21T11:07:34;17.00;15.00;12.67
78316;PMS7003;67572;50.930;18.276;2023-04-21T11:10:50;14.67;13.33;11.67
78316;PMS7003;67572;50.930;18.276;2023-04-21T11:13:55;15.67;15.67;13.67
78316;PMS7003;67572;50.930;18.276;2023-04-21T11:17:02;13.67;12.33;11.00
78316;PMS7003;67572;50.930;18.276;2023-04-21T11:20:06;11.33;11.33;9.00
78316;PMS7003;67572;50.930;18.276;2023-04-21T11:23:15;14.67;14.67;12.33
78316;PMS7003;67572;50.930;18.276;2023-04-21T11:26:30;16.67;14.00;11.67
78316;PMS7003;67572;50.930;18.276;2023-04-21T11:29:34;15.00;13.00;10.67
78316;PMS7003;67572;50.930;18.276;2023-04-21T11:32:38;14.67;13.67;11.33
78316;PMS7003;67572;50.930;18.276;2023-04-21T11:35:44;15.00;13.33;10.67
78316;PMS7003;67572;50.930;18.276;2023-04-21T11:38:48;11.00;11.00;8.50
78316;PMS7003;67572;50.930;18.276;2023-04-21T11:41:53;12.00;12.00;10.67
78316;PMS7003;67572;50.930;18.276;2023-04-21T11:44:57;12.33;9.33;8.67
78316;PMS7003;67572;50.930;18.276;2023-04-21T11:48:11;18.75;15.75;11.75
78316;PMS7003;67572;50.930;18.276;2023-04-21T11:51:17;17.00;15.00;11.25
78316;PMS7003;67572;50.930;18.276;2023-04-21T11:54:23;11.75;9.50;7.50
78316;PMS7003;67572;50.930;18.276;2023-04-21T11:57:28;12.00;10.75;8.00
78316;PMS7003;67572;50.930;18.276;2023-04-21T12:00:33;14.75;13.00;11.75
78316;PMS7003;67572;50.930;18.276;2023-04-21T12:03:37;16.75;14.50;12.00
78316;PMS7003;67572;50.930;18.276;2023-04-21T12:06:41;11.33;11.00;8.67
78316;PMS7003;67572;50.930;18.276;2023-04-21T12:09:49;13.00;13.00;11.00
78316;PMS7003;67572;50.930;18.276;2023-04-21T12:12:55;19.67;19.00;14.67
78316;PMS7003;67572;50.930;18.276;2023-04-21T12:16:01;14.50;14.50;12.00
78316;PMS7003;67572;50.930;18.276;2023-04-21T12:19:05;17.25;16.00;11.00
78316;PMS7003;67572;50.930;18.276;2023-04-21T12:22:09;14.00;14.00;12.00
78316;PMS7003;67572;50.930;18.276;2023-04-21T12:25:14;13.25;12.75;12.00
78316;PMS7003;67572;50.930;18.276;2023-04-21T12:28:19;17.50;15.75;12.00
78316;PMS7003;67572;50.930;18.276;2023-04-21T12:31:22;15.50;15.50;11.50
78316;PMS7003;67572;50.930;18.276;2023-04-21T12:34:26;11.25;11.25;9.00
78316;PMS7003;67572;50.930;18.276;2023-04-21T12:37:29;11.33;9.33;7.67
78316;PMS7003;67572;50.930;18.276;2023-04-21T12:40:33;15.50;12.75;11.00
78316;PMS7003;67572;50.930;18.276;2023-04-21T12:43:38;15.75;15.25;8.50
78316;PMS7003;67572;50.930;18.276;2023-04-21T12:46:42;13.67;13.67;11.00
78316;PMS7003;67572;50.930;18.276;2023-04-21T12:49:45;11.00;11.00;10.00
78316;PMS7003;67572;50.930;18.276;2023-04-21T12:52:49;16.00;13.00;11.67
78316;PMS7003;67572;50.930;18.276;2023-04-21T12:55:58;14.00;14.00;11.00
78316;PMS7003;67572;50.930;18.276;2023-04-21T12:59:07;19.33;14.33;11.67
78316;PMS7003;67572;50.930;18.276;2023-04-21T13:02:12;11.00;11.00;10.33
78316;PMS7003;67572;50.930;18.276;2023-04-21T13:05:16;14.00;14.00;7.33
78316;PMS7003;67572;50.930;18.276;2023-04-21T13:08:20;11.00;10.00;8.67
78316;PMS7003;67572;50.930;18.276;2023-04-21T13:11:23;19.00;17.33;14.00
78316;PMS7003;67572;50.930;18.276;2023-04-21T13:14:28;15.33;13.00;10.67
78316;PMS7003;67572;50.930;18.276;2023-04-21T13:17:32;8.00;8.00;7.00
78316;PMS7003;67572;50.930;18.276;2023-04-21T13:20:35;10.75;10.75;10.00
78316;PMS7003;67572;50.930;18.276;2023-04-21T13:23:39;29.67;23.33;17.33
78316;PMS7003;67572;50.930;18.276;2023-04-21T13:26:43;12.50;11.25;8.00
78316;PMS7003;67572;50.930;18.276;2023-04-21T13:29:48;9.50;9.50;8.50
78316;PMS7003;67572;50.930;18.276;2023-04-21T13:32:52;10.25;7.25;6.25
78316;PMS7003;67572;50.930;18.276;2023-04-21T13:35:55;10.75;10.00;7.25
78316;PMS7003;67572;50.930;18.276;2023-04-21T13:39:00;13.25;11.75;10.50
78316;PMS7003;67572;50.930;18.276;2023-04-21T13:42:05;12.00;12.00;10.00
78316;PMS7003;67572;50.930;18.276;2023-04-21T13:45:11;11.75;5.25;4.00
78316;PMS7003;67572;50.930;18.276;2023-04-21T13:48:14;9.00;9.00;8.00
78316;PMS7003;67572;50.930;18.276;2023-04-21T13:51:18;8.00;7.25;6.75
78316;PMS7003;67572;50.930;18.276;2023-04-21T13:54:22;11.75;10.25;8.75
78316;PMS7003;67572;50.930;18.276;2023-04-21T13:57:28;8.50;8.00;7.25
78316;PMS7003;67572;50.930;18.276;2023-04-21T14:00:33;7.50;7.50;6.75
78316;PMS7003;67572;50.930;18.276;2023-04-21T14:03:40;10.75;8.25;6.50
78316;PMS7003;67572;50.930;18.276;2023-04-21T14:06:44;12.25;12.25;8.50
78316;PMS7003;67572;50.930;18.276;2023-04-21T14:09:48;9.50;9.50;9.00
78316;PMS7003;67572;50.930;18.276;2023-04-21T14:12:52;11.25;10.25;7.75
78316;PMS7003;67572;50.930;18.276;2023-04-21T14:15:57;10.25;8.50;8.50
78316;PMS7003;67572;50.930;18.276;2023-04-21T14:19:03;7.00;7.00;6.50
78316;PMS7003;67572;50.930;18.276;2023-04-21T14:22:07;10.25;10.25;7.75
78316;PMS7003;67572;50.930;18.276;2023-04-21T14:25:11;12.75;11.00;8.75
78316;PMS7003;67572;50.930;18.276;2023-04-21T14:28:14;8.50;8.50;7.25
78316;PMS7003;67572;50.930;18.276;2023-04-21T14:31:19;10.75;9.25;7.50
78316;PMS7003;67572;50.930;18.276;2023-04-21T14:34:23;8.50;6.25;5.50
78316;PMS7003;67572;50.930;18.276;2023-04-21T14:37:27;10.00;8.00;7.75
78316;PMS7003;67572;50.930;18.276;2023-04-21T14:40:31;6.75;6.75;6.00
78316;PMS7003;67572;50.930;18.276;2023-04-21T14:43:35;11.25;10.00;7.50
78316;PMS7003;67572;50.930;18.276;2023-04-21T14:46:39;9.25;7.75;6.75
78316;PMS7003;67572;50.930;18.276;2023-04-21T14:49:54;7.50;6.75;5.00
78316;PMS7003;67572;50.930;18.276;2023-04-21T14:52:57;18.00;16.50;13.00
78316;PMS7003;67572;50.930;18.276;2023-04-21T14:56:01;10.25;10.25;7.75
78316;PMS7003;67572;50.930;18.276;2023-04-21T14:59:04;7.75;6.75;5.00
78316;PMS7003;67572;50.930;18.276;2023-04-21T15:02:09;17.33;15.00;12.00
78316;PMS7003;67572;50.930;18.276;2023-04-21T15:05:14;16.75;15.50;12.00
78316;PMS7003;67572;50.930;18.276;2023-04-21T15:08:18;10.00;8.00;7.50
78316;PMS7003;67572;50.930;18.276;2023-04-21T15:11:21;7.00;7.00;7.00
78316;PMS7003;67572;50.930;18.276;2023-04-21T15:14:25;6.00;6.00;6.00
78316;PMS7003;67572;50.930;18.276;2023-04-21T15:17:30;7.75;7.75;7.00
78316;PMS7003;67572;50.930;18.276;2023-04-21T15:20:33;33.67;33.67;20.67
78316;PMS7003;67572;50.930;18.276;2023-04-21T15:23:46;15.33;12.00;10.00
78316;PMS7003;67572;50.930;18.276;2023-04-21T15:26:49;8.00;8.00;7.25
78316;PMS7003;67572;50.930;18.276;2023-04-21T15:29:53;7.75;7.75;6.00
78316;PMS7003;67572;50.930;18.276;2023-04-21T15:32:58;7.67;7.00;4.33
78316;PMS7003;67572;50.930;18.276;2023-04-21T15:36:02;10.00;8.33;7.00
78316;PMS7003;67572;50.930;18.276;2023-04-21T15:39:06;12.67;10.33;8.33
78316;PMS7003;67572;50.930;18.276;2023-04-21T15:42:10;9.33;8.67;7.33
78316;PMS7003;67572;50.930;18.276;2023-04-21T15:45:13;10.00;8.67;7.00
78316;PMS7003;67572;50.930;18.276;2023-04-21T15:48:20;11.00;7.00;6.00
78316;PMS7003;67572;50.930;18.276;2023-04-21T15:51:24;10.00;8.00;6.67
78316;PMS7003;67572;50.930;18.276;2023-04-21T15:54:27;7.00;7.00;7.00
78316;PMS7003;67572;50.930;18.276;2023-04-21T15:57:31;8.33;6.67;6.00
78316;PMS7003;67572;50.930;18.276;2023-04-21T16:00:35;6.00;5.00;3.00
78316;PMS7003;67572;50.930;18.276;2023-04-21T16:03:40;8.33;7.00;6.00
78316;PMS7003;67572;50.930;18.276;2023-04-21T16:06:44;9.00;7.00;6.00
78316;PMS7003;67572;50.930;18.276;2023-04-21T16:09:47;5.67;5.33;3.67
78316;PMS7003;67572;50.930;18.276;2023-04-21T16:12:51;6.00;5.00;3.00
78316;PMS7003;67572;50.930;18.276;2023-04-21T16:15:54;11.33;11.00;9.67
78316;PMS7003;67572;50.930;18.276;2023-04-21T16:18:59;5.67;4.33;2.00
78316;PMS7003;67572;50.930;18.276;2023-04-21T16:22:03;7.00;7.00;5.00
78316;PMS7003;67572;50.930;18.276;2023-04-21T16:25:08;13.33;11.00;9.00
78316;PMS7003;67572;50.930;18.276;2023-04-21T16:28:13;7.33;5.67;3.67
78316;PMS7003;67572;50.930;18.276;2023-04-21T16:31:17;9.00;7.33;5.00
78316;PMS7003;67572;50.930;18.276;2023-04-21T16:34:22;8.00;7.33;7.00
78316;PMS7003;67572;50.930;18.276;2023-04-21T16:37:25;7.33;7.33;5.33
78316;PMS7003;67572;50.930;18.276;2023-04-21T16:40:29;6.00;6.00;5.00
78316;PMS7003;67572;50.930;18.276;2023-04-21T16:43:33;6.00;6.00;5.00
78316;PMS7003;67572;50.930;18.276;2023-04-21T16:46:36;6.67;3.67;3.00
78316;PMS7003;67572;50.930;18.276;2023-04-21T16:49:41;8.00;8.00;5.00
78316;PMS7003;67572;50.930;18.276;2023-04-21T16:52:45;9.67;8.67;6.67
78316;PMS7003;67572;50.930;18.276;2023-04-21T16:55:48;6.67;6.67;5.33
78316;PMS7003;67572;50.930;18.276;2023-04-21T16:58:52;9.00;8.33;6.00
78316;PMS7003;67572;50.930;18.276;2023-04-21T17:01:56;8.67;8.67;8.00
78316;PMS7003;67572;50.930;18.276;2023-04-21T17:05:01;10.67;9.00;8.00
78316;PMS7003;67572;50.930;18.276;2023-04-21T17:08:04;10.67;7.33;5.67
78316;PMS7003;67572;50.930;18.276;2023-04-21T17:11:08;9.00;9.00;8.00
78316;PMS7003;67572;50.930;18.276;2023-04-21T17:14:12;9.00;9.00;9.00